createdAt,value
2019-03-19T00:01:51.092Z,33.08
2019-03-19T00:04:18.023Z,42.13
2019-03-19T00:06:44.790Z,42.95
2019-03-19T00:09:11.517Z,33.25
2019-03-19T00:11:37.907Z,30.55
2019-03-19T00:14:04.431Z,26.12
2019-03-19T00:16:30.855Z,17.17
2019-03-19T00:18:57.153Z,14.15
2019-03-19T00:21:23.578Z,16.12
2019-03-19T00:23:49.932Z,16.60
2019-03-19T00:26:16.651Z,76.17
2019-03-19T00:28:43.103Z,78.20
2019-03-19T00:31:09.513Z,70.60
2019-03-19T00:33:35.937Z,66.40
2019-03-19T00:36:02.415Z,66.00
2019-03-19T00:38:28.911Z,31.70
2019-03-19T00:40:55.376Z,50.67
2019-03-19T00:43:21.875Z,34.75
2019-03-19T00:45:48.200Z,28.77
2019-03-19T00:48:14.668Z,32.15
2019-03-19T00:50:41.177Z,14.60
2019-03-19T00:53:07.462Z,12.68
2019-03-19T00:55:40.613Z,16.65
2019-03-19T00:58:02.163Z,12.30
2019-03-19T01:00:28.603Z,21.20
2019-03-19T01:02:54.987Z,30.65
2019-03-19T01:05:21.614Z,27.73
2019-03-19T01:07:48.020Z,35.88
2019-03-19T01:10:17.231Z,36.58
2019-03-19T01:12:42.874Z,38.65
2019-03-19T01:15:12.681Z,68.37
2019-03-19T01:17:38.992Z,84.83
2019-03-19T01:20:10.402Z,98.40
2019-03-19T01:22:36.935Z,145.97
2019-03-19T01:25:07.079Z,120.65
2019-03-19T01:27:34.165Z,107.92
2019-03-19T01:30:00.727Z,217.35
2019-03-19T01:32:27.127Z,124.35
2019-03-19T01:34:53.796Z,90.17
2019-03-19T01:37:20.516Z,92.78
2019-03-19T01:39:46.900Z,89.00
2019-03-19T01:42:13.340Z,76.15
2019-03-19T01:44:39.985Z,78.87
2019-03-19T01:47:06.393Z,83.07
2019-03-19T01:49:32.679Z,84.58
2019-03-19T01:51:59.278Z,84.22
2019-03-19T01:54:25.691Z,93.30
2019-03-19T01:56:52.487Z,93.40
2019-03-19T01:59:18.965Z,83.37
2019-03-19T02:01:45.303Z,90.32
2019-03-19T02:04:11.737Z,81.15
2019-03-19T02:06:38.146Z,78.33
2019-03-19T02:09:05.551Z,71.92
2019-03-19T02:11:32.138Z,80.50
2019-03-19T02:13:58.840Z,72.55
2019-03-19T02:16:25.323Z,59.45
2019-03-19T02:18:51.726Z,64.62
2019-03-19T02:21:18.142Z,52.10
2019-03-19T02:23:44.707Z,53.92
2019-03-19T02:26:16.339Z,59.70
2019-03-19T02:28:40.075Z,59.77
2019-03-19T02:31:06.844Z,52.73
2019-03-19T02:33:33.362Z,64.42
2019-03-19T02:35:59.779Z,63.70
2019-03-19T02:38:26.167Z,79.00
2019-03-19T02:40:52.784Z,75.22
2019-03-19T02:43:22.712Z,66.28
2019-03-19T02:45:48.073Z,65.92
2019-03-19T02:48:14.560Z,63.80
2019-03-19T02:50:41.100Z,60.55
2019-03-19T02:53:07.726Z,46.42
2019-03-19T02:55:34.286Z,53.00
2019-03-19T02:58:00.929Z,47.23
2019-03-19T03:00:27.360Z,40.95
2019-03-19T03:02:54.046Z,43.68
2019-03-19T03:05:21.152Z,40.23
2019-03-19T03:07:47.949Z,37.00
2019-03-19T03:10:14.893Z,38.17
2019-03-19T03:12:41.681Z,30.40
2019-03-19T03:15:12.830Z,28.75
2019-03-19T03:17:39.557Z,25.62
2019-03-19T03:20:12.997Z,26.35
2019-03-19T03:22:39.617Z,25.68
2019-03-19T03:25:10.343Z,24.20
2019-03-19T03:27:36.956Z,27.95
2019-03-19T03:30:11.992Z,29.25
2019-03-19T03:32:38.931Z,25.60
2019-03-19T03:35:08.599Z,26.40
2019-03-19T03:37:35.075Z,26.02
2019-03-19T03:40:05.040Z,26.30
2019-03-19T03:42:31.459Z,33.08
2019-03-19T03:44:58.179Z,28.38
2019-03-19T03:47:24.693Z,31.12
2019-03-19T03:49:51.512Z,27.65
2019-03-19T03:52:18.000Z,30.32
2019-03-19T03:54:44.590Z,34.60
2019-03-19T03:57:11.212Z,32.73
2019-03-19T03:59:37.699Z,31.65
2019-03-19T04:02:04.521Z,28.38
2019-03-19T04:04:30.914Z,24.95
2019-03-19T04:06:57.615Z,29.82
2019-03-19T04:09:24.204Z,31.85
2019-03-19T04:11:50.979Z,28.77
2019-03-19T04:14:17.692Z,29.42
2019-03-19T04:16:44.321Z,27.52
2019-03-19T04:19:10.802Z,23.52
2019-03-19T04:21:37.127Z,29.57
2019-03-19T04:24:04.043Z,26.42
2019-03-19T04:26:30.441Z,56.53
2019-03-19T04:28:56.834Z,49.70
2019-03-19T04:31:23.351Z,31.40
2019-03-19T04:33:49.752Z,34.20
2019-03-19T04:36:16.263Z,30.95
2019-03-19T04:38:42.682Z,28.73
2019-03-19T04:41:09.579Z,26.97
2019-03-19T04:43:35.975Z,27.77
2019-03-19T04:46:02.730Z,27.05
2019-03-19T04:48:29.119Z,28.25
2019-03-19T04:50:55.434Z,32.63
2019-03-19T04:53:24.136Z,29.60
2019-03-19T04:55:50.263Z,34.40
2019-03-19T04:58:16.855Z,38.48
2019-03-19T05:00:43.347Z,41.55
2019-03-19T05:03:09.687Z,78.35
2019-03-19T05:05:36.494Z,77.62
2019-03-19T05:08:03.228Z,55.48
2019-03-19T05:10:29.623Z,69.53
2019-03-19T05:12:56.067Z,62.05
2019-03-19T05:15:22.459Z,72.08
2019-03-19T05:17:49.141Z,70.50
2019-03-19T05:20:16.844Z,137.03
2019-03-19T05:22:43.450Z,117.95
2019-03-19T05:25:10.837Z,144.80
2019-03-19T05:27:37.976Z,97.97
2019-03-19T05:30:13.226Z,66.70
2019-03-19T05:32:39.651Z,67.03
2019-03-19T05:35:08.064Z,56.83
2019-03-19T05:37:35.423Z,57.48
2019-03-19T05:40:04.819Z,61.50
2019-03-19T05:42:31.268Z,60.05
2019-03-19T05:44:57.859Z,56.70
2019-03-19T05:47:24.254Z,52.98
2019-03-19T05:49:50.675Z,56.08
2019-03-19T05:52:17.371Z,42.85
2019-03-19T05:54:44.267Z,38.88
2019-03-19T05:57:11.113Z,42.70
2019-03-19T05:59:39.906Z,37.13
2019-03-19T06:02:05.881Z,33.75
2019-03-19T06:04:32.358Z,41.02
2019-03-19T06:06:58.798Z,72.40
2019-03-19T06:09:25.320Z,86.32
2019-03-19T06:11:52.819Z,82.35
2019-03-19T06:14:19.827Z,44.25
2019-03-19T06:16:46.341Z,73.40
2019-03-19T06:19:13.000Z,91.28
2019-03-19T06:21:39.492Z,87.35
2019-03-19T06:24:06.051Z,95.22
2019-03-19T06:26:32.441Z,51.75
2019-03-19T06:28:59.346Z,69.03
2019-03-19T06:31:25.734Z,54.83
2019-03-19T06:33:52.034Z,57.00
2019-03-19T06:36:18.512Z,70.08
2019-03-19T06:38:45.827Z,71.37
2019-03-19T06:41:12.225Z,69.55
2019-03-19T06:43:38.659Z,71.80
2019-03-19T06:46:05.291Z,61.75
2019-03-19T06:48:31.935Z,57.85
2019-03-19T06:50:58.431Z,54.70
2019-03-19T06:53:27.055Z,48.20
2019-03-19T06:55:53.440Z,55.30
2019-03-19T06:58:19.920Z,52.45
2019-03-19T07:00:46.307Z,53.28
2019-03-19T07:03:14.442Z,53.17
2019-03-19T07:05:40.831Z,50.85
2019-03-19T07:08:07.300Z,53.83
2019-03-19T07:10:33.792Z,56.42
2019-03-19T07:13:00.389Z,56.50
2019-03-19T07:15:27.205Z,57.40
2019-03-19T07:17:53.611Z,50.90
2019-03-19T07:20:25.086Z,44.67
2019-03-19T07:22:52.176Z,34.92
2019-03-19T07:25:18.598Z,43.13
2019-03-19T07:27:45.205Z,33.33
2019-03-19T07:30:19.476Z,41.00
2019-03-19T07:32:46.420Z,34.73
2019-03-19T07:35:12.902Z,35.33
2019-03-19T07:37:40.196Z,33.53
2019-03-19T07:40:15.938Z,33.80
2019-03-19T07:42:42.341Z,35.15
2019-03-19T07:45:21.096Z,31.87
2019-03-19T07:47:47.595Z,30.62
2019-03-19T07:50:22.016Z,26.07
2019-03-19T07:52:48.347Z,27.87
2019-03-19T07:55:14.984Z,29.90
2019-03-19T07:57:41.734Z,30.68
2019-03-19T08:00:20.482Z,31.23
2019-03-19T08:02:47.287Z,31.25
2019-03-19T08:05:13.990Z,35.48
2019-03-19T08:07:40.871Z,31.42
2019-03-19T08:10:12.511Z,37.95
2019-03-19T08:12:39.122Z,32.85
2019-03-19T08:15:10.064Z,33.55
2019-03-19T08:17:36.372Z,36.00
2019-03-19T08:20:09.870Z,28.98
2019-03-19T08:22:36.192Z,34.15
2019-03-19T08:25:06.197Z,18.65
2019-03-19T08:27:33.121Z,22.37
2019-03-19T08:29:59.612Z,18.87
2019-03-19T08:32:25.951Z,20.48
2019-03-19T08:34:52.278Z,19.75
2019-03-19T08:37:18.681Z,21.33
2019-03-19T08:39:45.110Z,20.35
2019-03-19T08:42:11.501Z,21.25
2019-03-19T08:44:38.151Z,19.45
2019-03-19T08:47:04.639Z,18.07
2019-03-19T08:49:30.973Z,19.77
2019-03-19T08:51:57.255Z,21.07
2019-03-19T08:54:23.982Z,60.52
2019-03-19T08:56:50.271Z,22.32
2019-03-19T08:59:16.575Z,12.47
2019-03-19T09:01:43.589Z,9.83
2019-03-19T09:04:10.122Z,6.22
2019-03-19T09:06:36.558Z,8.05
2019-03-19T09:09:06.857Z,6.95
2019-03-19T09:11:33.291Z,5.28
2019-03-19T09:13:59.994Z,5.70
2019-03-19T09:16:26.340Z,8.48
2019-03-19T09:18:53.022Z,7.83
2019-03-19T09:21:19.726Z,13.38
2019-03-19T09:23:46.141Z,9.75
2019-03-19T09:26:12.567Z,10.18
2019-03-19T09:28:38.886Z,10.60
2019-03-19T09:31:05.413Z,13.95
2019-03-19T09:33:32.135Z,14.58
2019-03-19T09:35:58.475Z,9.18
2019-03-19T09:38:25.411Z,11.85
2019-03-19T09:40:51.844Z,7.53
2019-03-19T09:43:18.280Z,8.75
2019-03-19T09:45:44.875Z,8.20
2019-03-19T09:48:11.419Z,6.12
2019-03-19T09:50:37.956Z,8.43
2019-03-19T09:53:04.838Z,10.55
2019-03-19T09:55:31.773Z,12.28
2019-03-19T09:57:58.408Z,9.33
2019-03-19T10:00:25.052Z,7.00
2019-03-19T10:02:51.910Z,9.25
2019-03-19T10:05:18.937Z,8.85
2019-03-19T10:07:46.336Z,9.40
2019-03-19T10:10:22.658Z,6.62
2019-03-19T10:12:50.117Z,9.25
2019-03-19T10:15:17.511Z,8.68
2019-03-19T10:17:44.034Z,7.12
2019-03-19T10:20:18.505Z,4.92
2019-03-19T10:22:45.778Z,7.25
2019-03-19T10:25:13.768Z,6.10
2019-03-19T10:27:40.307Z,15.32
2019-03-19T10:30:14.607Z,33.98
2019-03-19T10:32:41.380Z,9.03
2019-03-19T10:35:08.092Z,15.08
2019-03-19T10:37:34.616Z,10.05
2019-03-19T10:40:01.152Z,11.68
2019-03-19T10:42:27.764Z,7.70
2019-03-19T10:44:54.211Z,10.25
2019-03-19T10:47:20.611Z,11.40
2019-03-19T10:49:47.158Z,10.43
2019-03-19T10:52:14.030Z,10.90
2019-03-19T10:54:40.566Z,13.13
2019-03-19T10:57:07.101Z,10.88
2019-03-19T10:59:33.454Z,12.90
2019-03-19T11:01:59.889Z,10.43
2019-03-19T11:04:26.619Z,9.63
2019-03-19T11:06:53.020Z,12.03
2019-03-19T11:09:19.911Z,15.95
2019-03-19T11:11:46.403Z,17.87
2019-03-19T11:14:12.808Z,10.93
2019-03-19T11:16:39.239Z,11.83
2019-03-19T11:19:05.639Z,14.70
2019-03-19T11:21:32.047Z,13.45
2019-03-19T11:23:58.558Z,15.78
2019-03-19T11:26:25.220Z,25.15
2019-03-19T11:28:51.676Z,16.00
2019-03-19T11:31:18.185Z,18.70
2019-03-19T11:33:44.926Z,17.07
2019-03-19T11:36:12.227Z,13.45
2019-03-19T11:38:38.742Z,14.70
2019-03-19T11:41:07.314Z,16.35
2019-03-19T11:43:33.919Z,13.85
2019-03-19T11:46:00.495Z,18.23
2019-03-19T11:48:26.990Z,17.37
2019-03-19T11:50:53.442Z,19.73
2019-03-19T11:53:19.899Z,12.98
2019-03-19T11:55:46.510Z,20.72
2019-03-19T11:58:13.354Z,16.48
2019-03-19T12:00:39.811Z,14.00
2019-03-19T12:03:13.802Z,16.35
2019-03-19T12:05:35.476Z,14.50
2019-03-19T12:08:02.364Z,15.48
2019-03-19T12:10:28.863Z,12.13
2019-03-19T12:12:55.424Z,20.27
2019-03-19T12:15:22.171Z,14.07
2019-03-19T12:17:49.143Z,15.13
2019-03-19T12:20:15.790Z,8.98
2019-03-19T12:22:42.192Z,8.60
2019-03-19T12:25:11.839Z,11.18
2019-03-19T12:27:38.431Z,9.93
2019-03-19T12:30:22.966Z,13.60
2019-03-19T12:32:48.724Z,8.63
2019-03-19T12:35:16.976Z,11.55
2019-03-19T12:37:43.559Z,10.70
2019-03-19T12:40:18.172Z,9.90
2019-03-19T12:42:44.698Z,10.78
2019-03-19T12:45:22.920Z,16.12
2019-03-19T12:47:49.406Z,10.68
2019-03-19T12:50:23.135Z,11.15
2019-03-19T12:52:49.709Z,13.98
2019-03-19T12:55:16.367Z,10.45
2019-03-19T12:57:42.770Z,12.35
2019-03-19T13:00:33.627Z,7.42
2019-03-19T13:02:52.315Z,15.10
2019-03-19T13:05:21.329Z,10.18
2019-03-19T13:07:47.641Z,18.35
2019-03-19T13:10:20.304Z,12.75
2019-03-19T13:12:46.994Z,9.33
2019-03-19T13:15:19.129Z,21.80
2019-03-19T13:17:45.473Z,13.65
2019-03-19T13:20:19.390Z,8.73
2019-03-19T13:22:46.323Z,9.60
2019-03-19T13:25:21.983Z,13.35
2019-03-19T13:27:48.299Z,10.80
2019-03-19T13:30:30.359Z,12.58
2019-03-19T13:32:56.744Z,19.45
2019-03-19T13:35:23.044Z,14.40
2019-03-19T13:37:49.626Z,18.12
2019-03-19T13:40:17.323Z,14.45
2019-03-19T13:42:44.368Z,20.50
2019-03-19T13:45:20.016Z,11.45
2019-03-19T13:47:46.960Z,12.70
2019-03-19T13:50:15.933Z,19.30
2019-03-19T13:52:42.298Z,25.45
2019-03-19T13:55:13.188Z,70.60
2019-03-19T13:57:39.654Z,140.47
2019-03-19T14:00:13.389Z,233.63
2019-03-19T14:02:40.061Z,162.50
2019-03-19T14:05:09.431Z,92.92
2019-03-19T14:07:35.924Z,73.67
2019-03-19T14:10:07.075Z,19.12
2019-03-19T14:12:33.482Z,10.78
2019-03-19T14:14:59.787Z,11.90
2019-03-19T14:17:26.330Z,44.60
2019-03-19T14:19:52.617Z,84.87
2019-03-19T14:22:19.111Z,42.80
2019-03-19T14:24:45.665Z,27.62
2019-03-19T14:27:12.271Z,21.15
2019-03-19T14:29:38.750Z,40.83
2019-03-19T14:32:05.022Z,27.10
2019-03-19T14:34:31.330Z,20.95
2019-03-19T14:36:57.767Z,24.63
2019-03-19T14:39:24.222Z,15.60
2019-03-19T14:41:50.918Z,12.68
2019-03-19T14:44:17.550Z,10.93
2019-03-19T14:46:43.989Z,9.68
2019-03-19T14:49:10.928Z,18.35
2019-03-19T14:51:37.501Z,21.50
2019-03-19T14:54:04.063Z,24.20
2019-03-19T14:56:30.469Z,23.95
2019-03-19T14:58:59.327Z,31.45
2019-03-19T15:01:25.931Z,39.23
2019-03-19T15:03:52.448Z,37.30
2019-03-19T15:06:18.842Z,40.88
2019-03-19T15:08:45.460Z,33.40
2019-03-19T15:11:12.103Z,30.37
2019-03-19T15:13:38.638Z,65.72
2019-03-19T15:16:05.374Z,55.70
2019-03-19T15:18:31.873Z,38.85
2019-03-19T15:20:58.445Z,22.40
2019-03-19T15:23:24.880Z,31.35
2019-03-19T15:25:51.624Z,27.37
2019-03-19T15:28:18.109Z,16.30
2019-03-19T15:30:44.896Z,28.95
2019-03-19T15:33:11.402Z,86.63
2019-03-19T15:35:38.953Z,68.78
2019-03-19T15:38:05.707Z,77.50
2019-03-19T15:40:32.120Z,118.08
2019-03-19T15:43:00.829Z,116.97
2019-03-19T15:45:29.532Z,63.02
2019-03-19T15:47:55.969Z,84.45
2019-03-19T15:50:22.638Z,80.50
2019-03-19T15:52:49.001Z,88.78
2019-03-19T15:55:15.513Z,67.45
2019-03-19T15:57:42.330Z,55.43
2019-03-19T16:00:18.884Z,54.85
2019-03-19T16:02:45.570Z,35.45
2019-03-19T16:05:13.002Z,36.35
2019-03-19T16:07:39.496Z,45.33
2019-03-19T16:10:13.307Z,49.55
2019-03-19T16:12:40.462Z,45.70
2019-03-19T16:15:13.737Z,88.70
2019-03-19T16:17:40.131Z,100.20
2019-03-19T16:20:11.001Z,80.25
2019-03-19T16:22:38.741Z,111.88
2019-03-19T16:25:07.085Z,160.05
2019-03-19T16:27:33.571Z,124.18
2019-03-19T16:29:59.984Z,91.95
2019-03-19T16:32:26.411Z,107.83
2019-03-19T16:34:52.927Z,163.37
2019-03-19T16:37:19.990Z,187.82
2019-03-19T16:39:46.898Z,231.90
2019-03-19T16:42:13.406Z,224.67
2019-03-19T16:44:39.942Z,193.75
2019-03-19T16:47:06.437Z,226.47
2019-03-19T16:49:32.798Z,212.25
2019-03-19T16:51:59.251Z,189.52
2019-03-19T16:54:25.649Z,210.23
2019-03-19T16:56:52.645Z,207.98
2019-03-19T16:59:19.147Z,178.27
2019-03-19T17:01:45.585Z,231.30
2019-03-19T17:04:12.116Z,168.02
2019-03-19T17:06:38.726Z,159.20
2019-03-19T17:09:05.820Z,192.45
2019-03-19T17:11:32.471Z,230.18
2019-03-19T17:13:58.802Z,252.20
2019-03-19T17:16:25.213Z,219.77
2019-03-19T17:18:51.882Z,216.17
2019-03-19T17:21:18.377Z,213.55
2019-03-19T17:23:44.804Z,242.90
2019-03-19T17:26:11.096Z,264.08
2019-03-19T17:28:37.447Z,274.32
2019-03-19T17:31:04.024Z,262.17
2019-03-19T17:33:30.335Z,246.70
2019-03-19T17:35:56.963Z,335.17
2019-03-19T17:38:23.372Z,424.20
2019-03-19T17:40:50.179Z,627.65
2019-03-19T17:43:16.600Z,617.30
2019-03-19T17:45:43.147Z,631.27
2019-03-19T17:48:16.003Z,568.75
2019-03-19T17:50:42.075Z,456.85
2019-03-19T17:53:08.691Z,498.35
2019-03-19T17:55:35.192Z,422.37
2019-03-19T17:58:01.608Z,403.20
2019-03-19T18:00:32.862Z,513.75
2019-03-19T18:02:59.298Z,376.65
2019-03-19T18:05:25.799Z,261.43
2019-03-19T18:07:52.211Z,138.68
2019-03-19T18:10:18.973Z,185.57
2019-03-19T18:12:45.375Z,222.27
2019-03-19T18:15:14.122Z,319.77
2019-03-19T18:17:40.976Z,244.77
2019-03-19T18:20:17.215Z,227.72
2019-03-19T18:25:14.522Z,206.53
2019-03-19T18:27:41.027Z,265.15
2019-03-19T18:30:16.699Z,289.25
2019-03-19T18:32:43.401Z,275.82
2019-03-19T18:35:10.123Z,152.35
2019-03-19T18:37:36.624Z,148.38
2019-03-19T18:40:08.815Z,118.45
2019-03-19T18:42:35.234Z,101.60
2019-03-19T18:45:02.186Z,108.22
2019-03-19T18:47:28.985Z,140.52
2019-03-19T18:49:55.628Z,182.43
2019-03-19T18:52:21.993Z,128.95
2019-03-19T18:54:48.630Z,109.50
2019-03-19T18:57:15.079Z,123.07
2019-03-19T18:59:41.818Z,153.35
2019-03-19T19:02:08.321Z,166.22
2019-03-19T19:04:34.980Z,174.38
2019-03-19T19:07:01.579Z,164.90
2019-03-19T19:09:28.255Z,164.60
2019-03-19T19:11:54.767Z,246.20
2019-03-19T19:14:21.623Z,225.40
2019-03-19T19:16:48.045Z,303.92
2019-03-19T19:19:14.663Z,300.70
2019-03-19T19:21:41.252Z,319.95
2019-03-19T19:24:07.672Z,351.45
2019-03-19T19:26:34.008Z,319.00
2019-03-19T19:29:00.444Z,265.92
2019-03-19T19:31:26.947Z,247.33
2019-03-19T19:33:53.444Z,338.45
2019-03-19T19:36:19.962Z,324.77
2019-03-19T19:38:46.402Z,269.68
2019-03-19T19:41:12.939Z,191.28
2019-03-19T19:43:39.340Z,151.35
2019-03-19T19:46:05.702Z,133.95
2019-03-19T19:48:32.227Z,129.68
2019-03-19T19:50:58.935Z,131.22
2019-03-19T19:53:25.345Z,166.07
2019-03-19T19:55:51.878Z,242.05
2019-03-19T19:58:18.652Z,231.15
2019-03-19T20:00:45.152Z,212.48
2019-03-19T20:03:12.669Z,211.70
2019-03-19T20:05:39.275Z,238.72
2019-03-19T20:08:05.783Z,232.32
2019-03-19T20:10:32.367Z,222.05
2019-03-19T20:12:58.947Z,220.52
2019-03-19T20:15:25.734Z,226.32
2019-03-19T20:17:52.135Z,201.80
2019-03-19T20:20:28.771Z,179.25
2019-03-19T20:22:55.185Z,156.57
2019-03-19T20:25:21.704Z,174.27
2019-03-19T20:27:48.007Z,160.48
2019-03-19T20:30:19.604Z,169.65
2019-03-19T20:32:45.993Z,158.90
2019-03-19T20:35:12.592Z,183.03
2019-03-19T20:37:39.264Z,166.18
2019-03-19T20:40:12.211Z,172.85
2019-03-19T20:42:38.519Z,166.80
2019-03-19T20:45:09.658Z,197.45
2019-03-19T20:47:36.150Z,198.53
2019-03-19T20:50:07.406Z,218.45
2019-03-19T20:52:33.787Z,177.72
2019-03-19T20:55:00.506Z,204.75
2019-03-19T20:57:26.891Z,298.27
2019-03-19T20:59:53.464Z,218.20
2019-03-19T21:02:19.952Z,220.65
2019-03-19T21:04:46.440Z,191.98
2019-03-19T21:07:13.033Z,193.97
2019-03-19T21:09:39.561Z,245.27
2019-03-19T21:12:06.158Z,194.87
2019-03-19T21:14:32.851Z,173.55
2019-03-19T21:16:59.469Z,188.15
2019-03-19T21:19:25.795Z,200.40
2019-03-19T21:21:52.193Z,226.42
2019-03-19T21:24:18.827Z,238.10
2019-03-19T21:26:45.260Z,240.35
2019-03-19T21:29:11.738Z,205.27
2019-03-19T21:31:38.034Z,209.65
2019-03-19T21:34:04.761Z,221.20
2019-03-19T21:36:31.148Z,229.35
2019-03-19T21:38:57.628Z,234.62
2019-03-19T21:41:24.115Z,236.80
2019-03-19T21:43:50.512Z,247.67
2019-03-19T21:46:17.236Z,263.35
2019-03-19T21:48:43.642Z,249.98
2019-03-19T21:51:10.411Z,249.02
2019-03-19T21:53:36.854Z,224.65
2019-03-19T21:56:03.792Z,291.40
2019-03-19T21:58:30.289Z,292.60
2019-03-19T22:00:56.894Z,249.07
2019-03-19T22:03:23.735Z,241.40
2019-03-19T22:05:50.031Z,221.80
2019-03-19T22:08:16.711Z,235.65
2019-03-19T22:10:43.112Z,243.93
2019-03-19T22:13:09.643Z,264.63
2019-03-19T22:15:36.155Z,238.18
2019-03-19T22:18:02.887Z,269.02
2019-03-19T22:20:29.519Z,281.98
2019-03-19T22:22:55.910Z,274.40
2019-03-19T22:25:22.826Z,264.52
2019-03-19T22:27:49.287Z,289.57
2019-03-19T22:30:20.912Z,256.23
2019-03-19T22:32:47.540Z,250.95
2019-03-19T22:35:14.456Z,235.02
2019-03-19T22:37:40.927Z,226.90
2019-03-19T22:40:13.298Z,227.32
2019-03-19T22:42:39.719Z,239.00
2019-03-19T22:45:13.654Z,217.35
2019-03-19T22:47:40.162Z,226.77
2019-03-19T22:50:17.970Z,240.03
2019-03-19T22:52:44.999Z,223.47
2019-03-19T22:55:12.988Z,228.85
2019-03-19T22:57:39.499Z,221.65
2019-03-19T23:00:37.299Z,221.97
2019-03-19T23:03:05.010Z,228.42
2019-03-19T23:05:31.699Z,219.32
2019-03-19T23:07:58.505Z,219.53
2019-03-19T23:10:25.277Z,220.42
2019-03-19T23:12:51.614Z,206.50
2019-03-19T23:15:18.013Z,208.20
2019-03-19T23:17:44.456Z,211.52
2019-03-19T23:20:13.058Z,205.35
2019-03-19T23:22:39.956Z,207.65
2019-03-19T23:25:07.721Z,203.32
2019-03-19T23:27:34.107Z,210.78
2019-03-19T23:30:00.498Z,228.80
2019-03-19T23:32:26.928Z,212.42
2019-03-19T23:34:53.256Z,203.65
2019-03-19T23:37:19.932Z,202.62
2019-03-19T23:39:46.654Z,225.20
2019-03-19T23:42:13.569Z,226.27
2019-03-19T23:44:40.087Z,205.95
2019-03-19T23:47:06.374Z,204.80
2019-03-19T23:49:32.903Z,208.53
2019-03-19T23:51:59.451Z,208.47
2019-03-19T23:54:26.044Z,206.60
2019-03-19T23:56:52.832Z,224.47
2019-03-19T23:59:19.218Z,212.55
